Anacoco, Louisiana
Current Conditions -  °F | °C
As of 6:56 PM on Saturday 22 Nov 2014 (Local Time) from KAQV Reporting Station
Scattered Clouds Scattered Clouds  
Wind Chill: 64°   Ceiling: Unl
Heat Index: 64°   Visibility: 10mi
Dew Point: 59°   Wind: 3mph
Humidity: 84%   Direction: NA
Pressure: 29.88"   Gusts: NA
Location:  31.25°N, 93.34°W
Report Text: KAQV 230056Z AUTO VRB03KT 10SM FEW028 SCT065 18/15 A2988 RMK AO2 SLP118 T01780150
Loading
Personal Weather Stations






























Interactive Weather Map New forecast layout! Learn more

10-Day Weather Forecast

Advertisements
Track Severe Weather on mobile